sensor_id;sensor_type;location;lat;lon;timestamp;pressure;altitude;pressure_sealevel;temperature;humidity
21980;BME280;11154;48.558;9.234;2022-11-13T00:00:20;98484.16;;;16.90;47.63
21980;BME280;11154;48.558;9.234;2022-11-13T00:02:22;98485.00;;;16.91;47.74
21980;BME280;11154;48.558;9.234;2022-11-13T00:04:23;98482.97;;;16.93;47.55
21980;BME280;11154;48.558;9.234;2022-11-13T00:06:25;98480.09;;;16.94;47.53
21980;BME280;11154;48.558;9.234;2022-11-13T00:08:26;98480.94;;;16.95;47.28
21980;BME280;11154;48.558;9.234;2022-11-13T00:10:29;98474.34;;;16.97;47.04
21980;BME280;11154;48.558;9.234;2022-11-13T00:12:31;98470.03;;;16.96;46.99
21980;BME280;11154;48.558;9.234;2022-11-13T00:14:32;98468.97;;;16.97;47.05
21980;BME280;11154;48.558;9.234;2022-11-13T00:16:34;98466.13;;;16.99;46.80
21980;BME280;11154;48.558;9.234;2022-11-13T00:18:37;98471.50;;;16.99;46.96
21980;BME280;11154;48.558;9.234;2022-11-13T00:20:39;98467.81;;;17.00;46.84
21980;BME280;11154;48.558;9.234;2022-11-13T00:22:41;98463.94;;;17.02;46.78
21980;BME280;11154;48.558;9.234;2022-11-13T00:24:42;98456.69;;;17.03;46.98
21980;BME280;11154;48.558;9.234;2022-11-13T00:26:45;98460.88;;;17.05;47.38
21980;BME280;11154;48.558;9.234;2022-11-13T00:28:51;98458.84;;;17.07;46.99
21980;BME280;11154;48.558;9.234;2022-11-13T00:30:57;98458.84;;;17.07;46.65
21980;BME280;11154;48.558;9.234;2022-11-13T00:32:59;98453.47;;;17.07;46.75
21980;BME280;11154;48.558;9.234;2022-11-13T00:35:00;98451.47;;;17.09;46.42
21980;BME280;11154;48.558;9.234;2022-11-13T00:37:02;98445.22;;;17.09;46.55
21980;BME280;11154;48.558;9.234;2022-11-13T00:39:05;98447.56;;;17.12;46.36
21980;BME280;11154;48.558;9.234;2022-11-13T00:41:06;98445.69;;;17.12;46.34
21980;BME280;11154;48.558;9.234;2022-11-13T00:43:09;98439.31;;;17.13;46.42
21980;BME280;11154;48.558;9.234;2022-11-13T00:45:11;98436.63;;;17.13;46.71
21980;BME280;11154;48.558;9.234;2022-11-13T00:47:13;98435.44;;;17.16;46.86
21980;BME280;11154;48.558;9.234;2022-11-13T00:49:14;98428.22;;;17.16;46.83
21980;BME280;11154;48.558;9.234;2022-11-13T00:51:17;98427.03;;;17.19;47.05
21980;BME280;11154;48.558;9.234;2022-11-13T00:53:18;98427.66;;;17.21;46.85
21980;BME280;11154;48.558;9.234;2022-11-13T00:55:20;98432.88;;;17.22;47.09
21980;BME280;11154;48.558;9.234;2022-11-13T00:57:22;98422.75;;;17.24;47.39
21980;BME280;11154;48.558;9.234;2022-11-13T00:59:25;98434.00;;;17.28;47.17
21980;BME280;11154;48.558;9.234;2022-11-13T01:01:26;98426.44;;;17.31;46.98
21980;BME280;11154;48.558;9.234;2022-11-13T01:03:28;98431.63;;;17.33;47.13
21980;BME280;11154;48.558;9.234;2022-11-13T01:05:30;98426.91;;;17.35;46.95
21980;BME280;11154;48.558;9.234;2022-11-13T01:07:34;98417.63;;;17.37;46.84
21980;BME280;11154;48.558;9.234;2022-11-13T01:09:36;98418.09;;;17.40;46.81
21980;BME280;11154;48.558;9.234;2022-11-13T01:11:37;98416.09;;;17.42;46.97
21980;BME280;11154;48.558;9.234;2022-11-13T01:13:39;98410.31;;;17.45;47.03
21980;BME280;11154;48.558;9.234;2022-11-13T01:15:43;98409.50;;;17.45;46.96
21980;BME280;11154;48.558;9.234;2022-11-13T01:17:45;98409.16;;;17.48;46.88
21980;BME280;11154;48.558;9.234;2022-11-13T01:19:46;98405.41;;;17.49;46.67
21980;BME280;11154;48.558;9.234;2022-11-13T01:21:49;98402.38;;;17.52;46.38
21980;BME280;11154;48.558;9.234;2022-11-13T01:23:51;98401.38;;;17.53;46.06
21980;BME280;11154;48.558;9.234;2022-11-13T01:25:53;98398.28;;;17.56;46.21
21980;BME280;11154;48.558;9.234;2022-11-13T01:27:55;98402.66;;;17.57;46.23
21980;BME280;11154;48.558;9.234;2022-11-13T01:29:58;98396.44;;;17.56;46.17
21980;BME280;11154;48.558;9.234;2022-11-13T01:32:01;98398.94;;;17.58;45.66
21980;BME280;11154;48.558;9.234;2022-11-13T01:34:02;98397.94;;;17.59;45.17
21980;BME280;11154;48.558;9.234;2022-11-13T01:36:06;98386.97;;;17.60;45.51
21980;BME280;11154;48.558;9.234;2022-11-13T01:38:08;98393.19;;;17.61;45.90
21980;BME280;11154;48.558;9.234;2022-11-13T01:40:11;98394.03;;;17.61;45.58
21980;BME280;11154;48.558;9.234;2022-11-13T01:42:13;98391.16;;;17.63;45.58
21980;BME280;11154;48.558;9.234;2022-11-13T01:44:17;98388.47;;;17.63;45.42
21980;BME280;11154;48.558;9.234;2022-11-13T01:46:27;98383.09;;;17.63;44.70
21980;BME280;11154;48.558;9.234;2022-11-13T01:48:33;98375.88;;;17.63;44.83
21980;BME280;11154;48.558;9.234;2022-11-13T01:50:37;98380.41;;;17.63;44.72
21980;BME280;11154;48.558;9.234;2022-11-13T01:52:40;98368.81;;;17.62;44.83
21980;BME280;11154;48.558;9.234;2022-11-13T01:54:46;98373.34;;;17.62;44.89
21980;BME280;11154;48.558;9.234;2022-11-13T01:56:49;98377.03;;;17.61;44.97
21980;BME280;11154;48.558;9.234;2022-11-13T01:58:54;98375.22;;;17.61;44.83
21980;BME280;11154;48.558;9.234;2022-11-13T02:00:58;98363.44;;;17.62;44.90
21980;BME280;11154;48.558;9.234;2022-11-13T02:03:00;98362.56;;;17.62;44.86
21980;BME280;11154;48.558;9.234;2022-11-13T02:05:03;98363.59;;;17.61;44.95
21980;BME280;11154;48.558;9.234;2022-11-13T02:07:09;98364.25;;;17.63;44.90
21980;BME280;11154;48.558;9.234;2022-11-13T02:09:12;98355.38;;;17.62;44.85
21980;BME280;11154;48.558;9.234;2022-11-13T02:11:16;98357.03;;;17.63;44.79
21980;BME280;11154;48.558;9.234;2022-11-13T02:13:18;98353.50;;;17.63;44.55
21980;BME280;11154;48.558;9.234;2022-11-13T02:15:24;98345.44;;;17.63;44.79
21980;BME280;11154;48.558;9.234;2022-11-13T02:17:30;98346.44;;;17.62;44.81
21980;BME280;11154;48.558;9.234;2022-11-13T02:19:35;98344.75;;;17.61;44.77
21980;BME280;11154;48.558;9.234;2022-11-13T02:21:46;98342.72;;;17.63;44.62
21980;BME280;11154;48.558;9.234;2022-11-13T02:23:56;98330.28;;;17.62;44.63
21980;BME280;11154;48.558;9.234;2022-11-13T02:26:03;98326.59;;;17.63;44.64
21980;BME280;11154;48.558;9.234;2022-11-13T02:28:05;98333.00;;;17.62;44.90
21980;BME280;11154;48.558;9.234;2022-11-13T02:30:13;98320.19;;;17.64;44.66
21980;BME280;11154;48.558;9.234;2022-11-13T02:32:15;98319.38;;;17.63;44.67
21980;BME280;11154;48.558;9.234;2022-11-13T02:34:16;98321.22;;;17.63;44.94
21980;BME280;11154;48.558;9.234;2022-11-13T02:36:20;98325.38;;;17.65;44.85
21980;BME280;11154;48.558;9.234;2022-11-13T02:38:23;98311.94;;;17.65;45.06
21980;BME280;11154;48.558;9.234;2022-11-13T02:40:25;98309.91;;;17.67;44.95
21980;BME280;11154;48.558;9.234;2022-11-13T02:42:28;98310.56;;;17.69;45.11
21980;BME280;11154;48.558;9.234;2022-11-13T02:44:30;98300.63;;;17.70;44.81
21980;BME280;11154;48.558;9.234;2022-11-13T02:46:32;98306.00;;;17.70;44.89
21980;BME280;11154;48.558;9.234;2022-11-13T02:48:34;98306.00;;;17.70;44.54
21980;BME280;11154;48.558;9.234;2022-11-13T02:50:36;98305.19;;;17.69;44.52
21980;BME280;11154;48.558;9.234;2022-11-13T02:52:38;98292.34;;;17.71;44.50
21980;BME280;11154;48.558;9.234;2022-11-13T02:54:40;98296.91;;;17.71;44.45
21980;BME280;11154;48.558;9.234;2022-11-13T02:56:41;98294.03;;;17.72;44.31
21980;BME280;11154;48.558;9.234;2022-11-13T02:58:44;98290.31;;;17.73;44.63
21980;BME280;11154;48.558;9.234;2022-11-13T03:00:46;98294.69;;;17.74;44.51
21980;BME280;11154;48.558;9.234;2022-11-13T03:02:47;98289.50;;;17.73;44.48
21980;BME280;11154;48.558;9.234;2022-11-13T03:04:49;98293.22;;;17.72;44.39
21980;BME280;11154;48.558;9.234;2022-11-13T03:06:50;98285.75;;;17.74;44.36
21980;BME280;11154;48.558;9.234;2022-11-13T03:08:52;98285.75;;;17.74;44.28
21980;BME280;11154;48.558;9.234;2022-11-13T03:10:54;98284.13;;;17.73;44.17
21980;BME280;11154;48.558;9.234;2022-11-13T03:12:57;98273.34;;;17.73;44.14
21980;BME280;11154;48.558;9.234;2022-11-13T03:15:00;98282.06;;;17.75;44.16
21980;BME280;11154;48.558;9.234;2022-11-13T03:17:02;98277.53;;;17.75;44.25
21980;BME280;11154;48.558;9.234;2022-11-13T03:19:04;98269.25;;;17.77;44.29
21980;BME280;11154;48.558;9.234;2022-11-13T03:21:07;98269.91;;;17.79;44.43
21980;BME280;11154;48.558;9.234;2022-11-13T03:23:09;98268.25;;;17.78;44.30
21980;BME280;11154;48.558;9.234;2022-11-13T03:25:10;98263.69;;;17.78;44.28
21980;BME280;11154;48.558;9.234;2022-11-13T03:27:15;98268.69;;;17.81;44.39
21980;BME280;11154;48.558;9.234;2022-11-13T03:29:17;98268.50;;;17.83;44.04
21980;BME280;11154;48.558;9.234;2022-11-13T03:31:20;98263.13;;;17.83;44.09
21980;BME280;11154;48.558;9.234;2022-11-13T03:33:21;98266.47;;;17.85;44.22
21980;BME280;11154;48.558;9.234;2022-11-13T03:35:24;98259.22;;;17.85;44.18
21980;BME280;11154;48.558;9.234;2022-11-13T03:37:26;98260.06;;;17.86;43.96
21980;BME280;11154;48.558;9.234;2022-11-13T03:39:27;98271.47;;;17.88;43.88
21980;BME280;11154;48.558;9.234;2022-11-13T03:41:29;98262.38;;;17.89;43.98
21980;BME280;11154;48.558;9.234;2022-11-13T03:43:30;98259.47;;;17.90;43.54
21980;BME280;11154;48.558;9.234;2022-11-13T03:45:32;98263.03;;;17.91;43.30
21980;BME280;11154;48.558;9.234;2022-11-13T03:47:35;98257.44;;;17.92;43.37
21980;BME280;11154;48.558;9.234;2022-11-13T03:49:37;98260.13;;;17.92;43.23
21980;BME280;11154;48.558;9.234;2022-11-13T03:51:39;98258.25;;;17.93;43.36
21980;BME280;11154;48.558;9.234;2022-11-13T03:53:41;98260.59;;;17.96;43.33
21980;BME280;11154;48.558;9.234;2022-11-13T03:55:43;98268.66;;;17.96;43.27
21980;BME280;11154;48.558;9.234;2022-11-13T03:57:45;98263.28;;;17.96;43.62
21980;BME280;11154;48.558;9.234;2022-11-13T03:59:47;98264.97;;;17.97;43.70
21980;BME280;11154;48.558;9.234;2022-11-13T04:01:48;98266.63;;;17.98;43.63
21980;BME280;11154;48.558;9.234;2022-11-13T04:03:51;98262.06;;;17.98;43.67
21980;BME280;11154;48.558;9.234;2022-11-13T04:05:53;98261.25;;;17.98;43.64
21980;BME280;11154;48.558;9.234;2022-11-13T04:07:54;98259.19;;;18.00;43.70
21980;BME280;11154;48.558;9.234;2022-11-13T04:09:56;98265.41;;;18.00;43.62
21980;BME280;11154;48.558;9.234;2022-11-13T04:11:58;98262.53;;;18.02;43.74
21980;BME280;11154;48.558;9.234;2022-11-13T04:13:59;98257.13;;;18.02;43.51
21980;BME280;11154;48.558;9.234;2022-11-13T04:16:01;98264.19;;;18.03;43.81
21980;BME280;11154;48.558;9.234;2022-11-13T04:18:03;98260.47;;;18.04;43.80
21980;BME280;11154;48.558;9.234;2022-11-13T04:20:08;98253.03;;;18.06;43.75
21980;BME280;11154;48.558;9.234;2022-11-13T04:22:10;98257.59;;;18.05;43.66
21980;BME280;11154;48.558;9.234;2022-11-13T04:24:11;98252.00;;;18.07;43.71
21980;BME280;11154;48.558;9.234;2022-11-13T04:26:13;98249.31;;;18.07;43.55
21980;BME280;11154;48.558;9.234;2022-11-13T04:28:14;98248.09;;;18.09;43.71
21980;BME280;11154;48.558;9.234;2022-11-13T04:30:17;98242.72;;;18.09;43.39
21980;BME280;11154;48.558;9.234;2022-11-13T04:32:18;98240.22;;;18.08;42.97
21980;BME280;11154;48.558;9.234;2022-11-13T04:34:20;98244.59;;;18.08;43.26
21980;BME280;11154;48.558;9.234;2022-11-13T04:36:23;98238.19;;;18.09;43.13
21980;BME280;11154;48.558;9.234;2022-11-13T04:38:24;98241.06;;;18.08;42.95
21980;BME280;11154;48.558;9.234;2022-11-13T04:40:26;98233.81;;;18.08;42.75
21980;BME280;11154;48.558;9.234;2022-11-13T04:42:28;98239.22;;;18.08;42.92
21980;BME280;11154;48.558;9.234;2022-11-13T04:44:47;98241.91;;;18.08;42.88
21980;BME280;11154;48.558;9.234;2022-11-13T04:46:48;98230.31;;;18.08;43.07
21980;BME280;11154;48.558;9.234;2022-11-13T04:48:50;98228.63;;;18.07;42.79
21980;BME280;11154;48.558;9.234;2022-11-13T04:50:52;98233.16;;;18.07;42.70
21980;BME280;11154;48.558;9.234;2022-11-13T04:52:55;98224.06;;;18.08;42.47
21980;BME280;11154;48.558;9.234;2022-11-13T04:54:56;98224.72;;;18.09;42.25
21980;BME280;11154;48.558;9.234;2022-11-13T04:56:58;98222.84;;;18.10;41.56
21980;BME280;11154;48.558;9.234;2022-11-13T04:59:00;98216.44;;;18.11;41.45
21980;BME280;11154;48.558;9.234;2022-11-13T05:01:01;98213.75;;;18.11;41.40
21980;BME280;11154;48.558;9.234;2022-11-13T05:03:04;98216.66;;;18.09;41.37
21980;BME280;11154;48.558;9.234;2022-11-13T05:05:06;98207.56;;;18.10;41.09
21980;BME280;11154;48.558;9.234;2022-11-13T05:07:08;98204.00;;;18.10;41.09
21980;BME280;11154;48.558;9.234;2022-11-13T05:09:11;98200.88;;;18.07;41.41
21980;BME280;11154;48.558;9.234;2022-11-13T05:11:13;98211.63;;;18.07;41.51
21980;BME280;11154;48.558;9.234;2022-11-13T05:13:15;98203.75;;;18.05;41.62
21980;BME280;11154;48.558;9.234;2022-11-13T05:15:16;98197.56;;;18.05;41.50
21980;BME280;11154;48.558;9.234;2022-11-13T05:17:18;98197.56;;;18.05;41.66
21980;BME280;11154;48.558;9.234;2022-11-13T05:19:20;98196.69;;;18.04;41.47
21980;BME280;11154;48.558;9.234;2022-11-13T05:21:21;98194.22;;;18.03;41.71
21980;BME280;11154;48.558;9.234;2022-11-13T05:23:23;98191.50;;;18.03;41.67
21980;BME280;11154;48.558;9.234;2022-11-13T05:25:26;98196.91;;;18.03;41.59
21980;BME280;11154;48.558;9.234;2022-11-13T05:27:27;98185.28;;;18.02;41.52
21980;BME280;11154;48.558;9.234;2022-11-13T05:29:29;98186.34;;;18.01;41.68
21980;BME280;11154;48.558;9.234;2022-11-13T05:31:31;98173.03;;;18.00;41.64
21980;BME280;11154;48.558;9.234;2022-11-13T05:33:33;98186.50;;;18.00;41.47
21980;BME280;11154;48.558;9.234;2022-11-13T05:35:35;98179.28;;;18.00;41.38
21980;BME280;11154;48.558;9.234;2022-11-13T05:37:37;98175.94;;;17.98;41.75
21980;BME280;11154;48.558;9.234;2022-11-13T05:39:38;98181.31;;;17.98;41.66
21980;BME280;11154;48.558;9.234;2022-11-13T05:41:42;98180.50;;;17.98;41.78
21980;BME280;11154;48.558;9.234;2022-11-13T05:43:44;98181.31;;;17.98;41.70
21980;BME280;11154;48.558;9.234;2022-11-13T05:45:46;98179.66;;;17.97;42.05
21980;BME280;11154;48.558;9.234;2022-11-13T05:47:47;98180.50;;;17.98;41.95
21980;BME280;11154;48.558;9.234;2022-11-13T05:49:50;98171.56;;;17.97;41.63
21980;BME280;11154;48.558;9.234;2022-11-13T05:51:52;98179.66;;;17.97;41.55
21980;BME280;11154;48.558;9.234;2022-11-13T05:53:54;98177.81;;;17.98;41.54
21980;BME280;11154;48.558;9.234;2022-11-13T05:55:59;98176.78;;;17.99;41.65
21980;BME280;11154;48.558;9.234;2022-11-13T05:58:02;98183.81;;;18.00;41.92
21980;BME280;11154;48.558;9.234;2022-11-13T06:00:04;98179.47;;;17.99;41.74
21980;BME280;11154;48.558;9.234;2022-11-13T06:02:06;98183.81;;;18.00;41.71
21980;BME280;11154;48.558;9.234;2022-11-13T06:04:08;98183.81;;;18.00;41.62
21980;BME280;11154;48.558;9.234;2022-11-13T06:06:12;98189.19;;;18.00;41.50
21980;BME280;11154;48.558;9.234;2022-11-13T06:08:14;98183.81;;;18.00;41.85
21980;BME280;11154;48.558;9.234;2022-11-13T06:10:16;98181.13;;;18.00;41.85
21980;BME280;11154;48.558;9.234;2022-11-13T06:12:18;98178.44;;;18.00;42.05
21980;BME280;11154;48.558;9.234;2022-11-13T06:14:20;98190.03;;;18.00;41.87
21980;BME280;11154;48.558;9.234;2022-11-13T06:16:24;98187.56;;;17.99;41.72
21980;BME280;11154;48.558;9.234;2022-11-13T06:18:26;98189.59;;;17.97;41.56
21980;BME280;11154;48.558;9.234;2022-11-13T06:20:27;98180.16;;;16.64;43.47
21980;BME280;11154;48.558;9.234;2022-11-13T06:22:29;98185.59;;;14.75;49.39
21980;BME280;11154;48.558;9.234;2022-11-13T06:24:30;98173.88;;;13.49;53.18
21980;BME280;11154;48.558;9.234;2022-11-13T06:26:33;98183.09;;;12.54;56.71
21980;BME280;11154;48.558;9.234;2022-11-13T06:28:36;98180.66;;;11.93;60.10
21980;BME280;11154;48.558;9.234;2022-11-13T06:30:39;98175.84;;;11.44;62.60
21980;BME280;11154;48.558;9.234;2022-11-13T06:32:40;98184.56;;;11.10;65.61
21980;BME280;11154;48.558;9.234;2022-11-13T06:34:42;98175.06;;;10.80;67.40
21980;BME280;11154;48.558;9.234;2022-11-13T06:36:44;98184.25;;;10.59;69.06
21980;BME280;11154;48.558;9.234;2022-11-13T06:38:46;98170.03;;;10.41;70.13
21980;BME280;11154;48.558;9.234;2022-11-13T06:40:48;98166.03;;;10.28;70.91
21980;BME280;11154;48.558;9.234;2022-11-13T06:42:49;98168.16;;;10.15;72.41
21980;BME280;11154;48.558;9.234;2022-11-13T06:44:51;98161.88;;;9.78;74.21
21980;BME280;11154;48.558;9.234;2022-11-13T06:46:54;98164.22;;;9.34;77.01
21980;BME280;11154;48.558;9.234;2022-11-13T06:48:56;98153.31;;;9.09;79.02
21980;BME280;11154;48.558;9.234;2022-11-13T06:50:59;98159.09;;;8.84;80.00
21980;BME280;11154;48.558;9.234;2022-11-13T06:53:01;98151.25;;;8.73;82.60
21980;BME280;11154;48.558;9.234;2022-11-13T06:55:04;98158.28;;;8.83;85.35
21980;BME280;11154;48.558;9.234;2022-11-13T06:57:05;98150.69;;;8.69;83.97
21980;BME280;11154;48.558;9.234;2022-11-13T06:59:07;98151.75;;;8.58;84.63
21980;BME280;11154;48.558;9.234;2022-11-13T07:01:11;98148.09;;;8.49;84.79
21980;BME280;11154;48.558;9.234;2022-11-13T07:03:16;98150.31;;;8.44;85.62
21980;BME280;11154;48.558;9.234;2022-11-13T07:05:18;98140.59;;;8.54;86.00
21980;BME280;11154;48.558;9.234;2022-11-13T07:07:19;98142.44;;;8.63;87.43
21980;BME280;11154;48.558;9.234;2022-11-13T07:09:22;98145.53;;;8.68;87.78
21980;BME280;11154;48.558;9.234;2022-11-13T07:11:23;98138.69;;;8.65;86.43
21980;BME280;11154;48.558;9.234;2022-11-13T07:13:26;98144.81;;;8.66;86.58
21980;BME280;11154;48.558;9.234;2022-11-13T07:15:28;98145.16;;;8.82;88.01
21980;BME280;11154;48.558;9.234;2022-11-13T07:17:30;98132.00;;;8.80;85.99
21980;BME280;11154;48.558;9.234;2022-11-13T07:19:33;98129.09;;;8.83;85.54
21980;BME280;11154;48.558;9.234;2022-11-13T07:21:34;98132.44;;;8.76;84.09
21980;BME280;11154;48.558;9.234;2022-11-13T07:23:36;98124.63;;;8.84;85.79
21980;BME280;11154;48.558;9.234;2022-11-13T07:25:42;98112.78;;;8.88;84.87
21980;BME280;11154;48.558;9.234;2022-11-13T07:27:44;98119.47;;;8.92;84.94
21980;BME280;11154;48.558;9.234;2022-11-13T07:29:45;98131.22;;;8.99;85.94
21980;BME280;11154;48.558;9.234;2022-11-13T07:31:47;98127.75;;;8.98;85.09
21980;BME280;11154;48.558;9.234;2022-11-13T07:33:49;98127.75;;;8.98;83.94
21980;BME280;11154;48.558;9.234;2022-11-13T07:35:54;98124.66;;;9.03;83.33
21980;BME280;11154;48.558;9.234;2022-11-13T07:37:56;98131.09;;;9.10;83.50
21980;BME280;11154;48.558;9.234;2022-11-13T07:39:58;98110.31;;;9.15;84.28
21980;BME280;11154;48.558;9.234;2022-11-13T07:41:59;98120.22;;;9.22;85.03
21980;BME280;11154;48.558;9.234;2022-11-13T07:44:01;98121.06;;;9.23;83.52
21980;BME280;11154;48.558;9.234;2022-11-13T07:46:03;98124.56;;;9.23;82.98
21980;BME280;11154;48.558;9.234;2022-11-13T07:48:05;98124.00;;;9.29;84.13
21980;BME280;11154;48.558;9.234;2022-11-13T07:50:07;98127.09;;;9.34;83.58
21980;BME280;11154;48.558;9.234;2022-11-13T07:52:10;98127.22;;;9.32;83.40
21980;BME280;11154;48.558;9.234;2022-11-13T07:54:12;98119.69;;;9.37;84.66
21980;BME280;11154;48.558;9.234;2022-11-13T07:56:13;98124.72;;;9.40;84.55
21980;BME280;11154;48.558;9.234;2022-11-13T07:58:15;98121.78;;;9.43;84.29
21980;BME280;11154;48.558;9.234;2022-11-13T08:00:17;98110.34;;;9.33;85.37
21980;BME280;11154;48.558;9.234;2022-11-13T08:02:19;98097.03;;;8.47;89.81
21980;BME280;11154;48.558;9.234;2022-11-13T08:04:20;98092.66;;;8.07;92.94
21980;BME280;11154;48.558;9.234;2022-11-13T08:06:22;98099.00;;;7.95;95.80
21980;BME280;11154;48.558;9.234;2022-11-13T08:08:28;98079.72;;;7.84;97.08
21980;BME280;11154;48.558;9.234;2022-11-13T08:10:30;98087.66;;;7.63;96.21
21980;BME280;11154;48.558;9.234;2022-11-13T08:12:32;98094.31;;;7.58;97.88
21980;BME280;11154;48.558;9.234;2022-11-13T08:14:33;98084.53;;;7.49;98.76
21980;BME280;11154;48.558;9.234;2022-11-13T08:16:35;98087.41;;;7.46;98.92
21980;BME280;11154;48.558;9.234;2022-11-13T08:18:37;98079.28;;;7.58;100.00
21980;BME280;11154;48.558;9.234;2022-11-13T08:20:38;98083.72;;;7.58;100.00
21980;BME280;11154;48.558;9.234;2022-11-13T08:22:40;98074.59;;;7.62;100.00
21980;BME280;11154;48.558;9.234;2022-11-13T08:24:43;98078.63;;;7.66;100.00
21980;BME280;11154;48.558;9.234;2022-11-13T08:26:44;98072.91;;;7.61;100.00
21980;BME280;11154;48.558;9.234;2022-11-13T08:28:46;98081.56;;;7.63;100.00
21980;BME280;11154;48.558;9.234;2022-11-13T08:30:49;98077.66;;;7.67;100.00
21980;BME280;11154;48.558;9.234;2022-11-13T08:32:51;98067.81;;;7.69;100.00
21980;BME280;11154;48.558;9.234;2022-11-13T08:34:53;98071.03;;;7.72;100.00
21980;BME280;11154;48.558;9.234;2022-11-13T08:36:54;98066.56;;;7.73;100.00
21980;BME280;11154;48.558;9.234;2022-11-13T08:38:56;98058.44;;;7.65;100.00
21980;BME280;11154;48.558;9.234;2022-11-13T08:40:59;98063.47;;;7.68;100.00
21980;BME280;11154;48.558;9.234;2022-11-13T08:43:03;98072.28;;;7.78;100.00
21980;BME280;11154;48.558;9.234;2022-11-13T08:45:05;98065.16;;;7.69;99.70
21980;BME280;11154;48.558;9.234;2022-11-13T08:47:07;98065.22;;;7.78;100.00
21980;BME280;11154;48.558;9.234;2022-11-13T08:49:09;98063.13;;;7.82;100.00
21980;BME280;11154;48.558;9.234;2022-11-13T08:51:11;98062.72;;;7.86;100.00
21980;BME280;11154;48.558;9.234;2022-11-13T08:53:13;98069.44;;;7.90;100.00
21980;BME280;11154;48.558;9.234;2022-11-13T08:55:14;98066.97;;;7.98;100.00
21980;BME280;11154;48.558;9.234;2022-11-13T08:57:17;98060.06;;;8.06;100.00
21980;BME280;11154;48.558;9.234;2022-11-13T08:59:19;98059.91;;;8.08;100.00
21980;BME280;11154;48.558;9.234;2022-11-13T09:01:22;98062.25;;;8.01;99.86
21980;BME280;11154;48.558;9.234;2022-11-13T09:03:24;98067.00;;;8.07;100.00
21980;BME280;11154;48.558;9.234;2022-11-13T09:05:26;98066.25;;;8.16;100.00
21980;BME280;11154;48.558;9.234;2022-11-13T09:07:28;98062.34;;;8.20;100.00
21980;BME280;11154;48.558;9.234;2022-11-13T09:09:29;98066.56;;;8.23;100.00
21980;BME280;11154;48.558;9.234;2022-11-13T09:11:31;98064.50;;;8.26;100.00
21980;BME280;11154;48.558;9.234;2022-11-13T09:13:34;98060.16;;;8.25;99.64
21980;BME280;11154;48.558;9.234;2022-11-13T09:15:37;98064.53;;;8.36;100.00
21980;BME280;11154;48.558;9.234;2022-11-13T09:17:39;98051.13;;;8.37;100.00
21980;BME280;11154;48.558;9.234;2022-11-13T09:19:40;98061.31;;;8.32;99.26
21980;BME280;11154;48.558;9.234;2022-11-13T09:21:42;98068.41;;;8.32;98.81
21980;BME280;11154;48.558;9.234;2022-11-13T09:23:44;98051.81;;;8.39;99.27
21980;BME280;11154;48.558;9.234;2022-11-13T09:25:46;98043.19;;;8.37;98.28
21980;BME280;11154;48.558;9.234;2022-11-13T09:27:51;98029.25;;;8.45;98.97
21980;BME280;11154;48.558;9.234;2022-11-13T09:29:55;98035.63;;;8.33;97.44
21980;BME280;11154;48.558;9.234;2022-11-13T09:31:56;98039.97;;;8.34;98.79
21980;BME280;11154;48.558;9.234;2022-11-13T09:33:58;98048.47;;;8.28;98.13
21980;BME280;11154;48.558;9.234;2022-11-13T09:36:00;98043.16;;;8.28;97.56
21980;BME280;11154;48.558;9.234;2022-11-13T09:38:03;98040.75;;;8.25;97.63
21980;BME280;11154;48.558;9.234;2022-11-13T09:40:07;98047.56;;;8.18;98.55
21980;BME280;11154;48.558;9.234;2022-11-13T09:42:15;98058.19;;;8.27;100.00
21980;BME280;11154;48.558;9.234;2022-11-13T09:44:30;98059.63;;;8.31;98.95
21980;BME280;11154;48.558;9.234;2022-11-13T09:46:39;98048.63;;;8.36;98.55
21980;BME280;11154;48.558;9.234;2022-11-13T09:48:47;98056.00;;;8.32;97.48
21980;BME280;11154;48.558;9.234;2022-11-13T09:50:50;98053.59;;;8.29;98.14
21980;BME280;11154;48.558;9.234;2022-11-13T09:52:53;98050.00;;;8.30;97.77
21980;BME280;11154;48.558;9.234;2022-11-13T09:54:55;98059.63;;;8.31;98.31
21980;BME280;11154;48.558;9.234;2022-11-13T09:57:01;98058.53;;;8.43;100.00
21980;BME280;11154;48.558;9.234;2022-11-13T09:59:13;98062.72;;;8.46;100.00
21980;BME280;11154;48.558;9.234;2022-11-13T10:01:24;98049.63;;;8.44;99.26
21980;BME280;11154;48.558;9.234;2022-11-13T10:03:35;98050.31;;;8.56;99.55
21980;BME280;11154;48.558;9.234;2022-11-13T10:05:52;98053.44;;;8.70;97.64
21980;BME280;11154;48.558;9.234;2022-11-13T10:08:00;98036.81;;;8.59;97.89
21980;BME280;11154;48.558;9.234;2022-11-13T10:10:31;98036.22;;;8.46;99.15
21980;BME280;11154;48.558;9.234;2022-11-13T10:12:37;98040.81;;;8.44;99.64
21980;BME280;11154;48.558;9.234;2022-11-13T10:14:42;98036.63;;;8.41;100.00
21980;BME280;11154;48.558;9.234;2022-11-13T10:16:51;98032.88;;;8.44;99.42
21980;BME280;11154;48.558;9.234;2022-11-13T10:19:03;98034.69;;;8.43;99.94
21980;BME280;11154;48.558;9.234;2022-11-13T10:21:12;98040.00;;;8.53;100.00
21980;BME280;11154;48.558;9.234;2022-11-13T10:23:18;98028.72;;;8.60;100.00
21980;BME280;11154;48.558;9.234;2022-11-13T10:25:22;98024.13;;;8.62;100.00
21980;BME280;11154;48.558;9.234;2022-11-13T10:27:24;98020.22;;;8.66;100.00
21980;BME280;11154;48.558;9.234;2022-11-13T10:29:27;98033.78;;;8.72;100.00
21980;BME280;11154;48.558;9.234;2022-11-13T10:31:40;98025.13;;;8.89;100.00
21980;BME280;11154;48.558;9.234;2022-11-13T10:33:42;98020.13;;;8.86;100.00
21980;BME280;11154;48.558;9.234;2022-11-13T10:35:51;98009.78;;;8.93;100.00
21980;BME280;11154;48.558;9.234;2022-11-13T10:37:57;98020.53;;;8.91;100.00
21980;BME280;11154;48.558;9.234;2022-11-13T10:40:00;98010.59;;;8.93;100.00
21980;BME280;11154;48.558;9.234;2022-11-13T10:42:01;98009.38;;;8.88;98.03
21980;BME280;11154;48.558;9.234;2022-11-13T10:44:04;98002.53;;;8.85;98.45
21980;BME280;11154;48.558;9.234;2022-11-13T10:46:15;98007.28;;;9.01;100.00
21980;BME280;11154;48.558;9.234;2022-11-13T10:48:21;97998.59;;;9.08;99.16
21980;BME280;11154;48.558;9.234;2022-11-13T10:50:26;97995.00;;;9.00;99.11
21980;BME280;11154;48.558;9.234;2022-11-13T10:52:29;97994.69;;;9.03;100.00